createdAt,value
2022-12-03T00:00:39.693Z,101267.89
2022-12-03T00:03:14.097Z,101267.75
2022-12-03T00:05:49.047Z,101268.96
2022-12-03T00:08:23.728Z,101269.50
2022-12-03T00:10:57.953Z,101270.44
2022-12-03T00:13:33.099Z,101271.73
2022-12-03T00:16:08.474Z,101271.67
2022-12-03T00:18:43.268Z,101270.45
2022-12-03T00:21:17.848Z,101262.50
2022-12-03T00:23:52.148Z,101255.23
2022-12-03T00:26:26.487Z,101262.06
2022-12-03T00:29:09.011Z,101261.46
2022-12-03T00:31:42.238Z,101265.77
2022-12-03T00:34:16.388Z,101267.67
2022-12-03T00:36:50.894Z,101261.13
2022-12-03T00:39:24.835Z,101260.95
2022-12-03T00:42:10.368Z,101252.52
2022-12-03T00:44:44.848Z,101246.82
2022-12-03T00:47:18.375Z,101249.59
2022-12-03T00:49:52.493Z,101252.41
2022-12-03T00:52:26.011Z,101252.58
2022-12-03T00:54:57.961Z,101249.52
2022-12-03T00:57:32.324Z,101246.27
2022-12-03T01:00:08.428Z,101244.94
2022-12-03T01:02:42.020Z,101248.05
2022-12-03T01:05:16.604Z,101248.42
2022-12-03T01:07:50.526Z,101251.75
2022-12-03T01:10:24.219Z,101253.09
2022-12-03T01:12:58.782Z,101255.40
2022-12-03T01:15:32.879Z,101252.59
2022-12-03T01:18:07.433Z,101248.34
2022-12-03T01:20:42.361Z,101246.32
2022-12-03T01:23:16.848Z,101245.79
2022-12-03T01:25:50.829Z,101243.63
2022-12-03T01:28:24.944Z,101246.52
2022-12-03T01:31:15.774Z,101247.91
2022-12-03T01:33:50.171Z,101245.00
2022-12-03T01:36:24.450Z,101244.85
2022-12-03T01:38:59.107Z,101243.45
2022-12-03T01:41:33.992Z,101241.44
2022-12-03T01:44:14.829Z,101241.49
2022-12-03T01:46:49.978Z,101242.98
2022-12-03T01:49:27.832Z,101247.91
2022-12-03T01:52:01.149Z,101248.59
2022-12-03T01:54:43.200Z,101250.41
2022-12-03T01:57:25.385Z,101248.75
2022-12-03T02:00:02.941Z,101247.37
2022-12-03T02:02:39.022Z,101248.27
2022-12-03T02:05:21.097Z,101245.79
2022-12-03T02:10:43.310Z,101240.02
2022-12-03T02:13:17.777Z,101241.69
2022-12-03T02:16:00.553Z,101240.27
2022-12-03T02:18:34.549Z,101237.57
2022-12-03T02:21:16.985Z,101234.11
2022-12-03T02:24:00.573Z,101233.41
2022-12-03T02:26:34.466Z,101226.97
2022-12-03T02:29:09.222Z,101227.02
2022-12-03T02:31:44.520Z,101224.39
2022-12-03T02:34:38.187Z,101223.66
2022-12-03T02:37:16.895Z,101219.35
2022-12-03T02:39:54.401Z,101210.50
2022-12-03T02:42:38.054Z,101208.34
2022-12-03T02:45:17.389Z,101209.30
2022-12-03T02:47:54.583Z,101205.35
2022-12-03T02:50:32.808Z,101204.45
2022-12-03T02:53:09.822Z,101199.52
2022-12-03T02:55:45.154Z,101199.77
2022-12-03T02:58:21.148Z,101197.83
2022-12-03T03:00:56.722Z,101200.23
2022-12-03T03:03:34.698Z,101201.54
2022-12-03T03:06:12.050Z,101201.63
2022-12-03T03:08:47.196Z,101198.38
2022-12-03T03:11:22.374Z,101195.60
2022-12-03T03:13:56.712Z,101192.48
2022-12-03T03:16:40.706Z,101190.14
2022-12-03T03:19:14.900Z,101192.01
2022-12-03T03:21:58.285Z,101194.52
2022-12-03T03:24:32.207Z,101199.46
2022-12-03T03:27:07.257Z,101199.59
2022-12-03T03:29:41.856Z,101195.48
2022-12-03T03:32:16.870Z,101197.68
2022-12-03T03:34:51.306Z,101192.49
2022-12-03T03:37:26.471Z,101196.05
2022-12-03T03:40:00.637Z,101194.46
2022-12-03T03:42:34.356Z,101194.92
2022-12-03T03:45:12.394Z,101198.35
2022-12-03T03:47:45.896Z,101203.61
2022-12-03T03:50:20.974Z,101201.30
2022-12-03T03:52:55.280Z,101198.17
2022-12-03T03:55:30.850Z,101198.08
2022-12-03T03:58:05.630Z,101197.27
2022-12-03T04:00:41.119Z,101196.79
2022-12-03T04:03:15.906Z,101196.63
2022-12-03T04:05:51.278Z,101193.08
2022-12-03T04:08:25.545Z,101191.14
2022-12-03T04:11:16.026Z,101185.52
2022-12-03T04:13:51.237Z,101185.12
2022-12-03T04:16:24.892Z,101182.83
2022-12-03T04:18:58.897Z,101181.27
2022-12-03T04:21:50.104Z,101180.38
2022-12-03T04:24:24.372Z,101177.67
2022-12-03T04:27:14.623Z,101173.63
2022-12-03T04:29:58.184Z,101167.77
2022-12-03T04:32:50.927Z,101171.41
2022-12-03T04:35:42.104Z,101172.41
2022-12-03T04:38:16.636Z,101173.59
2022-12-03T04:41:04.155Z,101171.91
2022-12-03T04:44:00.449Z,101171.50
2022-12-03T04:46:34.807Z,101169.29
2022-12-03T04:49:08.752Z,101166.64
2022-12-03T04:51:42.849Z,101169.29
2022-12-03T04:54:16.893Z,101169.29
2022-12-03T04:57:00.593Z,101162.88
2022-12-03T04:59:34.706Z,101167.99
2022-12-03T05:02:09.745Z,101169.98
2022-12-03T05:04:43.994Z,101166.95
2022-12-03T05:07:18.585Z,101165.92
2022-12-03T05:09:52.732Z,101168.23
2022-12-03T05:12:26.829Z,101172.85
2022-12-03T05:15:00.973Z,101174.23
2022-12-03T05:17:34.903Z,101173.00
2022-12-03T05:20:26.879Z,101168.82
2022-12-03T05:23:00.817Z,101170.09
2022-12-03T05:25:35.307Z,101166.58
2022-12-03T05:28:09.871Z,101170.35
2022-12-03T05:30:43.304Z,101166.54
2022-12-03T05:33:14.844Z,101168.15
2022-12-03T05:35:48.449Z,101165.79
2022-12-03T05:38:23.314Z,101166.93
2022-12-03T05:40:57.193Z,101162.91
2022-12-03T05:43:32.835Z,101159.85
2022-12-03T05:46:06.201Z,101165.70
2022-12-03T05:48:39.589Z,101161.53
2022-12-03T05:51:14.385Z,101163.41
2022-12-03T05:53:48.636Z,101171.85
2022-12-03T05:56:23.625Z,101173.04
2022-12-03T05:58:57.822Z,101172.44
2022-12-03T06:01:29.017Z,101166.49
2022-12-03T06:04:02.492Z,101167.24
2022-12-03T06:06:37.385Z,101164.61
2022-12-03T06:09:10.745Z,101167.39
2022-12-03T06:11:44.402Z,101166.95
2022-12-03T06:14:18.706Z,101167.00
2022-12-03T06:16:52.773Z,101164.60
2022-12-03T06:19:27.182Z,101163.64
2022-12-03T06:22:01.333Z,101161.63
2022-12-03T06:24:34.909Z,101161.08
2022-12-03T06:27:09.815Z,101162.27
2022-12-03T06:29:44.563Z,101159.76
2022-12-03T06:32:18.526Z,101157.80
2022-12-03T06:34:52.717Z,101161.55
2022-12-03T06:37:26.894Z,101160.73
2022-12-03T06:40:01.915Z,101165.45
2022-12-03T06:42:35.354Z,101163.58
2022-12-03T06:45:17.896Z,101162.55
2022-12-03T06:47:51.807Z,101161.98
2022-12-03T06:50:34.835Z,101165.55
2022-12-03T06:53:09.326Z,101169.94
2022-12-03T06:55:44.003Z,101165.58
2022-12-03T06:58:18.785Z,101165.39
2022-12-03T07:00:53.229Z,101165.42
2022-12-03T07:03:27.265Z,101171.09
2022-12-03T07:06:00.978Z,101160.52
2022-12-03T07:08:35.182Z,101158.30
2022-12-03T07:11:29.993Z,101160.23
2022-12-03T07:14:06.712Z,101158.13
2022-12-03T07:16:41.138Z,101161.27
2022-12-03T07:19:14.586Z,101157.13
2022-12-03T07:21:48.973Z,101165.03
2022-12-03T07:24:23.432Z,101160.85
2022-12-03T07:26:57.388Z,101161.71
2022-12-03T07:29:31.270Z,101150.38
2022-12-03T07:32:05.740Z,101148.94
2022-12-03T07:34:40.341Z,101148.10
2022-12-03T07:37:24.291Z,101146.99
2022-12-03T07:39:58.729Z,101148.76
2022-12-03T07:42:32.467Z,101142.86
2022-12-03T07:45:07.359Z,101146.47
2022-12-03T07:47:41.053Z,101139.73
2022-12-03T07:50:18.824Z,101149.20
2022-12-03T07:52:53.079Z,101154.23
2022-12-03T07:55:27.243Z,101147.83
2022-12-03T08:00:34.484Z,101149.58
2022-12-03T08:03:08.617Z,101147.79
2022-12-03T08:05:43.346Z,101153.35
2022-12-03T08:08:17.982Z,101149.00
2022-12-03T08:10:51.953Z,101148.50
2022-12-03T08:13:25.698Z,101146.71
2022-12-03T08:16:01.764Z,101145.86
2022-12-03T08:18:35.965Z,101143.92
2022-12-03T08:21:15.763Z,101141.23
2022-12-03T08:24:15.357Z,101153.51
2022-12-03T08:26:51.460Z,101146.07
2022-12-03T08:29:25.221Z,101158.23
2022-12-03T08:32:01.135Z,101148.24
2022-12-03T08:34:40.689Z,101147.90
2022-12-03T08:37:21.028Z,101137.78
2022-12-03T08:39:57.572Z,101139.80
2022-12-03T08:42:45.016Z,101140.98
2022-12-03T08:45:41.691Z,101138.23
2022-12-03T08:48:28.067Z,101133.29
2022-12-03T08:51:04.604Z,101136.97
2022-12-03T08:53:41.222Z,101132.21
2022-12-03T08:56:26.873Z,101133.07
2022-12-03T08:59:01.348Z,101127.15
2022-12-03T09:01:43.826Z,101118.73
2022-12-03T09:04:39.885Z,101119.48
2022-12-03T09:07:14.519Z,101125.29
2022-12-03T09:09:48.465Z,101126.15
2022-12-03T09:12:22.705Z,101124.91
2022-12-03T09:14:57.719Z,101128.11
2022-12-03T09:17:32.264Z,101124.85
2022-12-03T09:20:07.030Z,101120.48
2022-12-03T09:22:50.867Z,101119.42
2022-12-03T09:25:25.057Z,101111.28
2022-12-03T09:28:09.533Z,101122.37
2022-12-03T09:30:43.853Z,101108.80
2022-12-03T09:33:18.092Z,101097.77
2022-12-03T09:35:52.125Z,101102.61
2022-12-03T09:38:26.230Z,101096.11
2022-12-03T09:41:01.860Z,101098.68
2022-12-03T09:44:05.168Z,101099.17
2022-12-03T09:46:32.635Z,101089.77
2022-12-03T09:49:12.362Z,101074.94
2022-12-03T09:51:50.225Z,101073.55
2022-12-03T09:54:28.823Z,101075.08
2022-12-03T09:57:10.481Z,101073.83
2022-12-03T09:59:45.208Z,101086.89
2022-12-03T10:02:26.533Z,101061.09
2022-12-03T10:05:01.588Z,101061.39
2022-12-03T10:07:35.685Z,101050.59
2022-12-03T10:10:17.391Z,101049.23
2022-12-03T10:12:52.670Z,101042.02
2022-12-03T10:15:28.094Z,101030.35
2022-12-03T10:18:03.538Z,101025.73
2022-12-03T10:20:42.835Z,101031.11
2022-12-03T10:23:24.522Z,101033.30
2022-12-03T10:26:00.035Z,101019.69
2022-12-03T10:28:37.752Z,101037.98
2022-12-03T10:31:18.904Z,101017.57
2022-12-03T10:34:00.292Z,101033.23
2022-12-03T10:36:34.288Z,101015.40
2022-12-03T10:39:13.495Z,101021.20
2022-12-03T10:41:49.159Z,101015.66
2022-12-03T10:44:25.991Z,101024.05
2022-12-03T10:47:12.902Z,101021.15
2022-12-03T10:49:44.704Z,101014.49
2022-12-03T10:52:26.639Z,101025.64
2022-12-03T10:55:00.926Z,101010.72
2022-12-03T10:57:35.513Z,100998.75
2022-12-03T11:00:23.797Z,100999.48
2022-12-03T11:02:58.274Z,101013.89
2022-12-03T11:05:32.870Z,101015.60
2022-12-03T11:08:07.783Z,101014.83
2022-12-03T11:10:42.014Z,101010.55
2022-12-03T11:13:49.185Z,101019.68
2022-12-03T11:17:00.970Z,101029.80
2022-12-03T11:19:50.163Z,101008.45
2022-12-03T11:22:44.087Z,101006.67
2022-12-03T11:25:50.443Z,100999.18
2022-12-03T11:28:54.097Z,101012.59
2022-12-03T11:31:46.395Z,101018.49
2022-12-03T11:34:49.044Z,101010.59
2022-12-03T11:37:31.866Z,101009.75
2022-12-03T11:40:34.746Z,101014.05
2022-12-03T11:43:15.157Z,100998.98
2022-12-03T11:45:49.178Z,101014.52
2022-12-03T11:48:24.676Z,101021.83
2022-12-03T11:50:58.984Z,100996.05
2022-12-03T11:53:40.703Z,101000.20
2022-12-03T11:56:27.804Z,100991.84
2022-12-03T11:59:07.118Z,100984.73
2022-12-03T12:01:43.104Z,100977.77
2022-12-03T12:04:34.448Z,100970.94
2022-12-03T12:07:09.905Z,100976.67
2022-12-03T12:12:40.269Z,100968.91
2022-12-03T12:15:43.887Z,100958.36
2022-12-03T12:18:55.037Z,100963.91
2022-12-03T12:21:48.163Z,100963.95
2022-12-03T12:24:40.154Z,100953.38
2022-12-03T12:27:17.029Z,100972.58
2022-12-03T12:29:56.406Z,100950.98
2022-12-03T12:32:33.027Z,100967.64
2022-12-03T12:35:20.838Z,100953.07
2022-12-03T12:37:59.959Z,100948.34
2022-12-03T12:40:36.265Z,100944.89
2022-12-03T12:43:34.248Z,100944.89
2022-12-03T12:49:15.212Z,100935.83
2022-12-03T12:51:52.077Z,100927.48
2022-12-03T12:54:26.341Z,100950.34
2022-12-03T12:56:59.988Z,100933.55
2022-12-03T12:59:34.234Z,100940.45
2022-12-03T13:02:22.488Z,100950.84
2022-12-03T13:04:56.335Z,100947.75
2022-12-03T13:07:30.574Z,100949.27
2022-12-03T13:10:21.951Z,100957.52
2022-12-03T13:12:56.282Z,100943.25
2022-12-03T13:15:45.399Z,100938.48
2022-12-03T13:18:33.564Z,100933.10
2022-12-03T13:21:16.027Z,100931.72
2022-12-03T13:23:50.123Z,100933.45
2022-12-03T13:26:36.463Z,100927.23
2022-12-03T13:29:17.740Z,100919.45
2022-12-03T13:31:57.001Z,100928.29
2022-12-03T13:34:33.975Z,100930.61
2022-12-03T13:37:16.361Z,100929.84
2022-12-03T13:39:51.235Z,100932.01
2022-12-03T13:42:42.471Z,100931.78
2022-12-03T13:45:36.055Z,100932.05
2022-12-03T13:48:24.133Z,100925.36
2022-12-03T13:50:58.566Z,100934.92
2022-12-03T13:53:36.056Z,100927.27
2022-12-03T13:56:29.790Z,100922.21
2022-12-03T13:59:04.468Z,100921.48
2022-12-03T14:01:39.776Z,100925.02
2022-12-03T14:04:19.639Z,100920.30
2022-12-03T14:06:54.368Z,100931.29
2022-12-03T14:09:29.165Z,100932.13
2022-12-03T14:12:20.131Z,100926.91
2022-12-03T14:14:54.083Z,100931.36
2022-12-03T14:17:29.584Z,100931.51
2022-12-03T14:20:05.635Z,100929.64
2022-12-03T14:22:42.419Z,100923.14
2022-12-03T14:25:17.387Z,100930.85
2022-12-03T14:27:51.682Z,100929.18
2022-12-03T14:30:26.827Z,100930.98
2022-12-03T14:33:00.834Z,100930.96
2022-12-03T14:35:35.116Z,100936.64
2022-12-03T14:38:09.447Z,100931.30
2022-12-03T14:40:43.535Z,100929.52
2022-12-03T14:43:19.509Z,100932.57
2022-12-03T14:45:54.268Z,100944.58
2022-12-03T14:48:28.370Z,100945.84
2022-12-03T14:51:05.116Z,100938.93
2022-12-03T14:53:38.928Z,100938.48
2022-12-03T14:56:13.835Z,100946.08
2022-12-03T14:58:48.502Z,100950.98
2022-12-03T15:01:22.755Z,100948.02
2022-12-03T15:03:56.924Z,100947.73
2022-12-03T15:06:28.202Z,100950.60
2022-12-03T15:09:02.754Z,100954.71
2022-12-03T15:11:46.520Z,100952.44
2022-12-03T15:14:21.119Z,100954.07
2022-12-03T15:16:55.146Z,100954.38
2022-12-03T15:19:28.896Z,100957.73
2022-12-03T15:22:03.270Z,100962.58
2022-12-03T15:24:37.371Z,100955.14
2022-12-03T15:27:11.833Z,100948.54
2022-12-03T15:29:46.141Z,100946.66
2022-12-03T15:32:20.642Z,100945.66
2022-12-03T15:34:54.563Z,100939.36
2022-12-03T15:37:29.517Z,100940.88
2022-12-03T15:40:04.158Z,100939.73
2022-12-03T15:42:38.809Z,100941.09
2022-12-03T15:45:16.028Z,100953.30
2022-12-03T15:47:50.075Z,100952.23
2022-12-03T15:50:24.203Z,100950.67
2022-12-03T15:53:01.212Z,100949.75
2022-12-03T15:55:34.882Z,100945.28
2022-12-03T15:58:09.416Z,100945.38
2022-12-03T16:00:43.595Z,100944.70
2022-12-03T16:03:17.596Z,100949.58
2022-12-03T16:05:52.431Z,100954.38
2022-12-03T16:08:26.534Z,100959.73
2022-12-03T16:11:00.697Z,100960.42
2022-12-03T16:13:35.182Z,100961.85
2022-12-03T16:16:11.006Z,100962.64
2022-12-03T16:18:46.094Z,100963.33
2022-12-03T16:21:28.339Z,100963.71
2022-12-03T16:24:03.421Z,100962.39
2022-12-03T16:26:37.000Z,100966.69
2022-12-03T16:29:10.669Z,100965.81
2022-12-03T16:31:44.675Z,100964.80
2022-12-03T16:34:19.864Z,100963.19
2022-12-03T16:36:54.413Z,100965.52
2022-12-03T16:39:28.737Z,100965.92
2022-12-03T16:42:04.019Z,100965.80
2022-12-03T16:44:55.714Z,100967.89
2022-12-03T16:47:34.133Z,100964.42
2022-12-03T16:50:20.639Z,100964.39
2022-12-03T16:52:58.091Z,100968.14
2022-12-03T16:55:30.276Z,100964.45
2022-12-03T16:58:04.483Z,100971.20
2022-12-03T17:00:39.323Z,100974.65
2022-12-03T17:03:13.583Z,100974.77
2022-12-03T17:05:47.662Z,100971.89
2022-12-03T17:08:21.553Z,100977.98
2022-12-03T17:10:55.712Z,100981.74
2022-12-03T17:13:30.072Z,100982.36
2022-12-03T17:16:03.957Z,100986.98
2022-12-03T17:18:37.703Z,100985.21
2022-12-03T17:21:12.847Z,100989.48
2022-12-03T17:23:48.917Z,100985.46
2022-12-03T17:26:22.556Z,100984.14
2022-12-03T17:28:57.476Z,100990.44
2022-12-03T17:31:33.720Z,100983.77
2022-12-03T17:34:11.742Z,100978.96
2022-12-03T17:36:46.095Z,100980.70
2022-12-03T17:39:20.193Z,100977.86
2022-12-03T17:41:53.876Z,100973.62
2022-12-03T17:44:29.325Z,100974.47
2022-12-03T17:47:03.495Z,100971.89
2022-12-03T17:49:38.133Z,100972.77
2022-12-03T17:52:11.580Z,100972.08
2022-12-03T17:55:08.958Z,100965.99
2022-12-03T17:57:39.822Z,100967.15
2022-12-03T18:00:23.367Z,100964.62
2022-12-03T18:02:57.629Z,100963.23
2022-12-03T18:05:31.792Z,100966.22
2022-12-03T18:08:05.937Z,100965.55
2022-12-03T18:10:40.763Z,100968.11
2022-12-03T18:13:17.588Z,100966.61
2022-12-03T18:15:51.966Z,100968.14
2022-12-03T18:18:25.315Z,100968.73
2022-12-03T18:21:05.334Z,100966.78
2022-12-03T18:23:40.244Z,100962.48
2022-12-03T18:26:14.211Z,100960.73
2022-12-03T18:28:48.551Z,100962.39
2022-12-03T18:31:23.760Z,100961.60
2022-12-03T18:34:02.448Z,100961.88
2022-12-03T18:36:40.217Z,100958.59
2022-12-03T18:39:22.884Z,100956.41
2022-12-03T18:41:57.470Z,100951.73
2022-12-03T18:44:31.739Z,100950.84
2022-12-03T18:47:08.852Z,100948.36
2022-12-03T18:49:43.082Z,100946.27
2022-12-03T18:52:21.033Z,100941.84
2022-12-03T18:54:55.539Z,100942.77
2022-12-03T18:57:29.726Z,100938.23
2022-12-03T19:00:11.824Z,100935.13
2022-12-03T19:03:03.959Z,100942.10
2022-12-03T19:05:39.296Z,100944.70
2022-12-03T19:08:15.305Z,100945.86
2022-12-03T19:10:57.300Z,100944.45
2022-12-03T19:13:35.249Z,100946.98
2022-12-03T19:16:12.466Z,100944.05
2022-12-03T19:18:46.525Z,100941.27
2022-12-03T19:21:21.358Z,100938.82
2022-12-03T19:24:22.714Z,100938.98
2022-12-03T19:26:48.709Z,100948.99
2022-12-03T19:29:23.103Z,100948.89
2022-12-03T19:31:57.608Z,100942.02
2022-12-03T19:34:32.795Z,100941.15
2022-12-03T19:37:09.555Z,100944.45
2022-12-03T19:39:43.179Z,100944.11
2022-12-03T19:42:17.522Z,100941.58
2022-12-03T19:44:52.553Z,100940.41
2022-12-03T19:47:26.703Z,100943.54
2022-12-03T19:50:00.714Z,100939.64
2022-12-03T19:52:37.311Z,100939.38
2022-12-03T19:55:13.796Z,100936.95
2022-12-03T19:57:48.899Z,100938.34
2022-12-03T20:00:25.220Z,100938.65
2022-12-03T20:02:59.741Z,100942.59
2022-12-03T20:05:33.520Z,100945.39
2022-12-03T20:08:08.783Z,100943.42
2022-12-03T20:10:42.419Z,100947.23
2022-12-03T20:13:16.113Z,100942.58
2022-12-03T20:15:49.765Z,100942.13
2022-12-03T20:18:23.760Z,100944.68
2022-12-03T20:21:01.384Z,100946.85
2022-12-03T20:23:35.468Z,100946.05
2022-12-03T20:26:12.732Z,100947.86
2022-12-03T20:28:47.185Z,100944.81
2022-12-03T20:31:23.185Z,100943.73
2022-12-03T20:33:56.957Z,100947.83
2022-12-03T20:36:27.668Z,100943.13
2022-12-03T20:39:04.938Z,100944.88
2022-12-03T20:41:39.635Z,100945.20
2022-12-03T20:44:14.162Z,100941.86
2022-12-03T20:46:47.664Z,100948.87
2022-12-03T20:49:21.449Z,100943.67
2022-12-03T20:51:59.811Z,100941.73
2022-12-03T20:54:36.687Z,100934.75
2022-12-03T20:57:10.774Z,100928.73
2022-12-03T20:59:44.955Z,100925.91
2022-12-03T21:02:18.536Z,100917.52
2022-12-03T21:04:51.511Z,100918.16
2022-12-03T21:07:26.561Z,100907.69
2022-12-03T21:10:00.379Z,100909.86
2022-12-03T21:12:34.843Z,100903.91
2022-12-03T21:15:11.617Z,100908.63
2022-12-03T21:17:46.130Z,100906.83
2022-12-03T21:20:21.400Z,100904.26
2022-12-03T21:22:56.228Z,100909.20
2022-12-03T21:25:30.428Z,100909.74
2022-12-03T21:28:07.074Z,100915.47
2022-12-03T21:30:41.736Z,100902.41
2022-12-03T21:33:15.621Z,100897.74
2022-12-03T21:35:49.693Z,100903.33
2022-12-03T21:38:27.764Z,100903.43
2022-12-03T21:41:05.414Z,100895.16
2022-12-03T21:43:39.539Z,100894.34
2022-12-03T21:47:10.098Z,100889.91
2022-12-03T21:49:11.369Z,100892.90
2022-12-03T21:51:44.674Z,100889.94
2022-12-03T21:54:18.677Z,100887.85
2022-12-03T21:56:53.583Z,100892.20
2022-12-03T21:59:28.350Z,100893.41
2022-12-03T22:02:02.801Z,100890.81
2022-12-03T22:04:36.763Z,100900.04
2022-12-03T22:07:15.573Z,100889.69
2022-12-03T22:09:50.085Z,100892.30
2022-12-03T22:12:23.904Z,100896.62
2022-12-03T22:14:58.523Z,100908.10
2022-12-03T22:17:32.719Z,100901.45
2022-12-03T22:20:07.265Z,100899.65
2022-12-03T22:22:40.928Z,100900.70
2022-12-03T22:25:15.386Z,100903.36
2022-12-03T22:27:49.502Z,100900.13
2022-12-03T22:30:24.372Z,100890.41
2022-12-03T22:32:59.284Z,100890.77
2022-12-03T22:35:33.129Z,100902.70
2022-12-03T22:38:06.996Z,100899.73
2022-12-03T22:40:42.020Z,100902.22
2022-12-03T22:43:16.347Z,100905.27
2022-12-03T22:45:49.612Z,100914.03
2022-12-03T22:48:21.505Z,100913.63
2022-12-03T22:50:56.142Z,100918.69
2022-12-03T22:53:30.439Z,100907.10
2022-12-03T22:56:05.224Z,100902.12
2022-12-03T22:58:40.665Z,100888.55
2022-12-03T23:01:21.334Z,100894.80
2022-12-03T23:03:55.421Z,100890.11
2022-12-03T23:06:29.860Z,100897.24
2022-12-03T23:09:03.208Z,100887.63
2022-12-03T23:11:37.103Z,100881.17
2022-12-03T23:14:11.254Z,100874.79
2022-12-03T23:16:45.018Z,100867.04
2022-12-03T23:19:21.232Z,100862.05
2022-12-03T23:21:55.163Z,100859.77
2022-12-03T23:24:29.236Z,100843.70
2022-12-03T23:27:04.215Z,100834.30
2022-12-03T23:29:39.187Z,100834.48
2022-12-03T23:32:13.356Z,100826.04
2022-12-03T23:34:45.153Z,100819.33
2022-12-03T23:37:19.615Z,100819.39
2022-12-03T23:39:54.211Z,100820.28
2022-12-03T23:42:28.593Z,100824.38
2022-12-03T23:45:02.872Z,100833.10
2022-12-03T23:47:36.977Z,100823.50
2022-12-03T23:50:15.806Z,100820.43
2022-12-03T23:52:49.793Z,100822.13
2022-12-03T23:55:24.060Z,100818.26
2022-12-03T23:57:57.714Z,100813.96
